createdAt,value
2023-03-04T00:01:50.519Z,102754.94
2023-03-04T00:04:17.627Z,102752.53
2023-03-04T00:06:44.174Z,102754.25
2023-03-04T00:09:10.723Z,102757.25
2023-03-04T00:11:37.213Z,102761.59
2023-03-04T00:14:03.761Z,102753.22
2023-03-04T00:16:30.280Z,102758.28
2023-03-04T00:18:57.479Z,102754.59
2023-03-04T00:21:24.344Z,102764.34
2023-03-04T00:23:50.890Z,102757.63
2023-03-04T00:26:17.905Z,102749.06
2023-03-04T00:28:44.912Z,102748.72
2023-03-04T00:31:12.134Z,102753.09
2023-03-04T00:33:40.228Z,102752.06
2023-03-04T00:36:06.973Z,102753.22
2023-03-04T00:38:33.450Z,102761.28
2023-03-04T00:40:59.951Z,102756.22
2023-03-04T00:43:26.304Z,102751.88
2023-03-04T00:45:52.804Z,102753.88
2023-03-04T00:48:19.203Z,102755.75
2023-03-04T00:50:45.647Z,102748.50
2023-03-04T00:53:12.074Z,102754.19
2023-03-04T00:55:38.482Z,102750.50
2023-03-04T00:58:04.906Z,102756.56
2023-03-04T01:00:31.285Z,102751.38
2023-03-04T01:02:57.692Z,102750.84
2023-03-04T01:05:24.283Z,102762.97
2023-03-04T01:07:50.633Z,102759.56
2023-03-04T01:10:17.473Z,102757.41
2023-03-04T01:12:46.435Z,102758.09
2023-03-04T01:15:17.074Z,102758.09
2023-03-04T01:17:46.773Z,102755.56
2023-03-04T01:20:13.635Z,102754.38
2023-03-04T01:22:40.134Z,102747.16
2023-03-04T01:25:06.955Z,102753.53
2023-03-04T01:27:33.330Z,102746.50
2023-03-04T01:29:59.713Z,102744.81
2023-03-04T01:32:26.221Z,102741.28
2023-03-04T01:34:52.649Z,102737.25
2023-03-04T01:37:19.287Z,102738.06
2023-03-04T01:39:45.638Z,102731.03
2023-03-04T01:42:20.920Z,102726.50
2023-03-04T01:44:48.623Z,102729.00
2023-03-04T01:47:16.124Z,102728.34
2023-03-04T01:49:42.988Z,102720.28
2023-03-04T01:52:13.668Z,102717.25
2023-03-04T01:54:41.468Z,102716.22
2023-03-04T01:57:26.689Z,102718.06
2023-03-04T02:00:20.977Z,102705.66
2023-03-04T02:02:54.013Z,102702.78
2023-03-04T02:05:22.178Z,102709.19
2023-03-04T02:07:49.940Z,102698.06
2023-03-04T02:10:16.591Z,102693.41
2023-03-04T02:12:43.378Z,102696.94
2023-03-04T02:15:10.900Z,102690.53
2023-03-04T02:17:37.621Z,102692.38
2023-03-04T02:20:12.921Z,102693.22
2023-03-04T02:22:49.228Z,102681.63
2023-03-04T02:25:22.223Z,102689.03
2023-03-04T02:27:48.702Z,102688.34
2023-03-04T02:30:16.586Z,102681.47
2023-03-04T02:32:42.931Z,102683.13
2023-03-04T02:35:17.132Z,102681.47
2023-03-04T02:37:46.467Z,102675.06
2023-03-04T02:40:23.314Z,102680.28
2023-03-04T02:42:49.704Z,102675.41
2023-03-04T02:45:36.090Z,102672.91
2023-03-04T02:48:02.971Z,102672.22
2023-03-04T02:50:33.779Z,102666.16
2023-03-04T02:53:00.171Z,102672.56
2023-03-04T02:55:26.618Z,102665.50
2023-03-04T02:57:53.378Z,102660.44
2023-03-04T03:00:20.068Z,102660.44
2023-03-04T03:02:46.518Z,102661.97
2023-03-04T03:05:16.253Z,102658.63
2023-03-04T03:07:42.776Z,102656.09
2023-03-04T03:10:10.130Z,102658.94
2023-03-04T03:12:36.609Z,102653.41
2023-03-04T03:15:03.140Z,102651.41
2023-03-04T03:17:29.523Z,102648.72
2023-03-04T03:19:55.856Z,102643.34
2023-03-04T03:22:22.363Z,102646.03
2023-03-04T03:24:48.692Z,102644.34
2023-03-04T03:27:15.081Z,102648.03
2023-03-04T03:29:41.428Z,102641.50
2023-03-04T03:32:08.013Z,102633.09
2023-03-04T03:34:34.597Z,102629.56
2023-03-04T03:37:01.051Z,102634.25
2023-03-04T03:39:27.476Z,102640.47
2023-03-04T03:41:53.860Z,102635.28
2023-03-04T03:44:20.273Z,102634.25
2023-03-04T03:46:47.179Z,102638.13
2023-03-04T03:49:17.249Z,102639.81
2023-03-04T03:51:43.827Z,102637.31
2023-03-04T03:54:10.213Z,102638.97
2023-03-04T03:56:36.635Z,102646.34
2023-03-04T03:59:03.003Z,102642.31
2023-03-04T04:01:29.546Z,102640.97
2023-03-04T04:03:56.110Z,102637.31
2023-03-04T04:06:22.726Z,102635.94
2023-03-04T04:08:49.154Z,102632.59
2023-03-04T04:11:15.521Z,102647.53
2023-03-04T04:13:41.875Z,102646.69
2023-03-04T04:16:10.133Z,102648.72
2023-03-04T04:18:36.824Z,102645.00
2023-03-04T04:21:04.772Z,102642.31
2023-03-04T04:23:31.083Z,102645.69
2023-03-04T04:25:58.261Z,102643.00
2023-03-04T04:28:24.929Z,102644.66
2023-03-04T04:30:51.435Z,102648.38
2023-03-04T04:33:17.915Z,102650.03
2023-03-04T04:35:44.450Z,102650.88
2023-03-04T04:38:11.202Z,102652.06
2023-03-04T04:40:37.732Z,102650.03
2023-03-04T04:43:04.170Z,102654.41
2023-03-04T04:45:30.565Z,102647.34
2023-03-04T04:47:57.417Z,102644.31
2023-03-04T04:50:24.748Z,102648.19
2023-03-04T04:52:51.283Z,102652.03
2023-03-04T04:55:17.778Z,102650.22
2023-03-04T04:57:47.137Z,102650.03
2023-03-04T05:00:14.513Z,102652.72
2023-03-04T05:02:40.933Z,102645.31
2023-03-04T05:05:08.016Z,102645.31
2023-03-04T05:07:34.818Z,102659.44
2023-03-04T05:10:01.288Z,102653.75
2023-03-04T05:12:27.752Z,102639.13
2023-03-04T05:14:54.193Z,102641.97
2023-03-04T05:17:20.524Z,102641.81
2023-03-04T05:19:46.946Z,102645.50
2023-03-04T05:22:16.106Z,102650.03
2023-03-04T05:24:44.661Z,102642.16
2023-03-04T05:27:11.503Z,102641.13
2023-03-04T05:29:37.871Z,102644.66
2023-03-04T05:32:04.509Z,102640.97
2023-03-04T05:34:30.859Z,102648.03
2023-03-04T05:36:57.199Z,102645.34
2023-03-04T05:39:23.601Z,102649.56
2023-03-04T05:41:50.157Z,102648.38
2023-03-04T05:44:16.690Z,102654.09
2023-03-04T05:46:43.115Z,102646.19
2023-03-04T05:49:09.498Z,102650.72
2023-03-04T05:51:35.829Z,102655.75
2023-03-04T05:54:02.223Z,102645.19
2023-03-04T05:56:29.973Z,102650.03
2023-03-04T05:58:59.787Z,102648.84
2023-03-04T06:01:26.521Z,102643.66
2023-03-04T06:03:53.060Z,102649.03
2023-03-04T06:06:19.450Z,102646.50
2023-03-04T06:08:45.780Z,102645.69
2023-03-04T06:11:14.531Z,102644.00
2023-03-04T06:13:40.996Z,102651.06
2023-03-04T06:16:07.676Z,102650.03
2023-03-04T06:18:34.102Z,102647.53
2023-03-04T06:21:03.392Z,102648.38
2023-03-04T06:23:30.870Z,102646.69
2023-03-04T06:26:00.561Z,102653.75
2023-03-04T06:28:27.518Z,102648.38
2023-03-04T06:30:55.689Z,102651.72
2023-03-04T06:33:22.226Z,102646.34
2023-03-04T06:35:48.742Z,102649.03
2023-03-04T06:38:15.635Z,102654.22
2023-03-04T06:40:42.115Z,102655.06
2023-03-04T06:43:08.651Z,102666.66
2023-03-04T06:45:35.086Z,102663.66
2023-03-04T06:48:01.531Z,102654.75
2023-03-04T06:50:27.978Z,102659.13
2023-03-04T06:52:56.704Z,102663.47
2023-03-04T06:55:23.245Z,102665.50
2023-03-04T06:57:49.725Z,102659.47
2023-03-04T07:00:16.795Z,102663.31
2023-03-04T07:02:43.214Z,102665.81
2023-03-04T07:05:11.447Z,102666.00
2023-03-04T07:07:38.059Z,102671.91
2023-03-04T07:10:04.938Z,102671.22
2023-03-04T07:12:31.343Z,102675.44
2023-03-04T07:14:57.714Z,102671.91
2023-03-04T07:17:24.045Z,102669.38
2023-03-04T07:19:50.455Z,102659.47
2023-03-04T07:22:16.935Z,102672.56
2023-03-04T07:24:46.208Z,102671.72
2023-03-04T07:27:13.810Z,102673.44
2023-03-04T07:29:40.165Z,102672.94
2023-03-04T07:32:10.238Z,102678.63
2023-03-04T07:34:36.966Z,102678.78
2023-03-04T07:37:03.834Z,102672.84
2023-03-04T07:39:30.327Z,102677.25
2023-03-04T07:41:56.866Z,102681.28
2023-03-04T07:44:23.336Z,102677.06
2023-03-04T07:46:49.761Z,102676.53
2023-03-04T07:49:16.259Z,102680.19
2023-03-04T07:51:42.710Z,102685.50
2023-03-04T07:54:10.430Z,102682.72
2023-03-04T07:56:36.907Z,102688.78
2023-03-04T07:59:03.453Z,102685.78
2023-03-04T08:01:32.978Z,102685.56
2023-03-04T08:04:00.004Z,102684.88
2023-03-04T08:06:27.042Z,102687.00
2023-03-04T08:08:59.232Z,102691.91
2023-03-04T08:11:26.737Z,102692.22
2023-03-04T08:13:56.423Z,102697.44
2023-03-04T08:16:24.551Z,102699.84
2023-03-04T08:18:54.161Z,102709.06
2023-03-04T08:21:22.332Z,102702.56
2023-03-04T08:23:50.555Z,102704.28
2023-03-04T08:26:22.591Z,102697.19
2023-03-04T08:28:49.330Z,102703.31
2023-03-04T08:31:17.079Z,102699.88
2023-03-04T08:33:46.994Z,102696.50
2023-03-04T08:36:14.983Z,102695.22
2023-03-04T08:38:41.595Z,102702.53
2023-03-04T08:41:08.129Z,102701.41
2023-03-04T08:43:34.935Z,102702.41
2023-03-04T08:46:01.844Z,102707.56
2023-03-04T08:48:28.400Z,102696.28
2023-03-04T08:50:55.038Z,102702.88
2023-03-04T08:53:22.023Z,102700.00
2023-03-04T08:55:48.468Z,102701.91
2023-03-04T08:58:15.334Z,102703.53
2023-03-04T09:00:44.574Z,102702.41
2023-03-04T09:03:12.389Z,102698.34
2023-03-04T09:05:39.145Z,102698.91
2023-03-04T09:08:05.974Z,102692.00
2023-03-04T09:10:32.737Z,102693.56
2023-03-04T09:12:59.789Z,102686.41
2023-03-04T09:15:26.179Z,102688.69
2023-03-04T09:17:52.539Z,102684.84
2023-03-04T09:20:19.724Z,102688.94
2023-03-04T09:22:46.134Z,102689.00
2023-03-04T09:25:15.425Z,102692.28
2023-03-04T09:27:42.106Z,102686.41
2023-03-04T09:30:09.856Z,102692.47
2023-03-04T09:32:36.738Z,102692.31
2023-03-04T09:35:03.957Z,102698.28
2023-03-04T09:37:30.334Z,102695.94
2023-03-04T09:39:56.732Z,102685.06
2023-03-04T09:42:38.584Z,102687.53
2023-03-04T09:45:07.481Z,102680.84
2023-03-04T09:47:37.314Z,102676.47
2023-03-04T09:50:08.420Z,102678.75
2023-03-04T09:53:12.630Z,102676.59
2023-03-04T09:55:41.896Z,102670.66
2023-03-04T09:58:21.954Z,102672.69
2023-03-04T10:00:56.982Z,102668.84
2023-03-04T10:03:52.829Z,102662.03
2023-03-04T10:06:21.963Z,102658.25
2023-03-04T10:09:01.362Z,102661.28
2023-03-04T10:11:34.944Z,102660.66
2023-03-04T10:14:22.877Z,102654.66
2023-03-04T10:16:53.945Z,102660.41
2023-03-04T10:19:57.948Z,102659.66
2023-03-04T10:22:42.188Z,102656.38
2023-03-04T10:25:26.492Z,102642.66
2023-03-04T10:27:57.093Z,102642.41
2023-03-04T10:31:01.243Z,102636.84
2023-03-04T10:33:35.150Z,102633.13
2023-03-04T10:36:12.107Z,102636.34
2023-03-04T10:38:41.640Z,102640.97
2023-03-04T10:41:27.979Z,102648.72
2023-03-04T10:44:09.532Z,102648.53
2023-03-04T10:46:40.160Z,102645.25
2023-03-04T10:49:06.729Z,102650.72
2023-03-04T10:51:46.404Z,102641.53
2023-03-04T10:54:41.759Z,102642.06
2023-03-04T10:57:18.271Z,102639.25
2023-03-04T10:59:45.982Z,102637.78
2023-03-04T11:02:41.622Z,102640.44
2023-03-04T11:05:19.341Z,102639.41
2023-03-04T11:07:56.816Z,102645.91
2023-03-04T11:10:42.984Z,102647.41
2023-03-04T11:13:16.468Z,102644.63
2023-03-04T11:16:05.574Z,102649.09
2023-03-04T11:18:47.328Z,102654.91
2023-03-04T11:21:23.282Z,102650.84
2023-03-04T11:23:58.953Z,102652.44
2023-03-04T11:27:13.156Z,102655.44
2023-03-04T11:29:44.906Z,102648.53
2023-03-04T11:32:29.980Z,102651.09
2023-03-04T11:35:16.743Z,102636.66
2023-03-04T11:38:04.121Z,102632.63
2023-03-04T11:40:49.859Z,102632.13
2023-03-04T11:43:28.406Z,102629.91
2023-03-04T11:46:16.129Z,102628.44
2023-03-04T11:49:10.549Z,102618.72
2023-03-04T11:51:49.211Z,102605.78
2023-03-04T11:54:28.777Z,102614.19
2023-03-04T11:57:02.107Z,102609.41
2023-03-04T11:59:44.989Z,102604.09
2023-03-04T12:02:16.394Z,102583.16
2023-03-04T12:04:48.972Z,102597.50
2023-03-04T12:07:58.322Z,102605.13
2023-03-04T12:10:33.629Z,102601.63
2023-03-04T12:13:36.188Z,102605.59
2023-03-04T12:16:53.868Z,102599.22
2023-03-04T12:19:57.237Z,102604.44
2023-03-04T12:22:42.280Z,102597.84
2023-03-04T12:25:32.907Z,102603.34
2023-03-04T12:28:22.562Z,102601.16
2023-03-04T12:30:59.919Z,102590.34
2023-03-04T12:33:36.316Z,102582.03
2023-03-04T12:36:24.213Z,102589.19
2023-03-04T12:38:50.537Z,102590.69
2023-03-04T12:41:35.805Z,102583.56
2023-03-04T12:44:17.280Z,102575.03
2023-03-04T12:46:58.950Z,102565.06
2023-03-04T12:49:41.206Z,102576.16
2023-03-04T12:52:15.183Z,102573.16
2023-03-04T12:54:47.885Z,102570.47
2023-03-04T12:57:22.791Z,102565.88
2023-03-04T12:59:51.856Z,102574.81
2023-03-04T13:02:36.548Z,102563.84
2023-03-04T13:05:42.103Z,102566.19
2023-03-04T13:08:15.169Z,102574.03
2023-03-04T13:10:41.843Z,102575.41
2023-03-04T13:13:35.717Z,102571.00
2023-03-04T13:16:27.213Z,102569.97
2023-03-04T13:18:53.691Z,102576.31
2023-03-04T13:21:25.970Z,102568.97
2023-03-04T13:23:53.796Z,102564.22
2023-03-04T13:26:22.842Z,102563.22
2023-03-04T13:28:54.837Z,102569.78
2023-03-04T13:31:27.020Z,102570.13
2023-03-04T13:33:56.421Z,102563.06
2023-03-04T13:36:31.781Z,102561.69
2023-03-04T13:39:24.579Z,102553.94
2023-03-04T13:41:53.739Z,102551.31
2023-03-04T13:44:55.595Z,102549.59
2023-03-04T13:47:31.161Z,102550.69
2023-03-04T13:50:34.420Z,102545.75
2023-03-04T13:53:27.596Z,102537.28
2023-03-04T13:56:20.526Z,102546.81
2023-03-04T13:58:50.043Z,102551.97
2023-03-04T14:01:28.868Z,102538.69
2023-03-04T14:03:55.634Z,102532.47
2023-03-04T14:06:27.259Z,102530.34
2023-03-04T14:08:54.917Z,102527.28
2023-03-04T14:11:39.576Z,102529.97
2023-03-04T14:14:10.419Z,102526.59
2023-03-04T14:16:40.862Z,102532.00
2023-03-04T14:19:16.256Z,102533.88
2023-03-04T14:21:47.122Z,102530.16
2023-03-04T14:24:16.570Z,102527.81
2023-03-04T14:26:45.156Z,102531.72
2023-03-04T14:29:23.890Z,102526.03
2023-03-04T14:31:50.666Z,102525.78
2023-03-04T14:34:36.533Z,102527.16
2023-03-04T14:37:05.543Z,102523.28
2023-03-04T14:39:35.637Z,102511.63
2023-03-04T14:42:12.049Z,102514.69
2023-03-04T14:44:44.806Z,102519.19
2023-03-04T14:47:23.465Z,102516.28
2023-03-04T14:49:50.270Z,102506.03
2023-03-04T14:52:48.481Z,102497.38
2023-03-04T14:55:14.881Z,102499.16
2023-03-04T14:57:45.792Z,102497.75
2023-03-04T15:00:28.017Z,102498.97
2023-03-04T15:02:57.049Z,102495.69
2023-03-04T15:05:29.759Z,102505.00
2023-03-04T15:08:02.555Z,102502.59
2023-03-04T15:10:35.384Z,102504.72
2023-03-04T15:13:03.925Z,102499.47
2023-03-04T15:15:41.912Z,102505.69
2023-03-04T15:18:17.321Z,102502.97
2023-03-04T15:21:02.366Z,102494.72
2023-03-04T15:23:30.750Z,102496.09
2023-03-04T15:26:00.657Z,102490.03
2023-03-04T15:28:33.306Z,102498.41
2023-03-04T15:30:59.742Z,102492.00
2023-03-04T15:33:26.249Z,102492.19
2023-03-04T15:35:56.520Z,102489.28
2023-03-04T15:38:23.630Z,102490.50
2023-03-04T15:40:51.770Z,102487.53
2023-03-04T15:43:21.162Z,102481.41
2023-03-04T15:45:48.510Z,102483.88
2023-03-04T15:48:16.982Z,102484.47
2023-03-04T15:51:03.881Z,102487.53
2023-03-04T15:53:41.891Z,102480.28
2023-03-04T15:56:16.169Z,102479.63
2023-03-04T15:58:43.332Z,102477.78
2023-03-04T16:01:15.889Z,102473.31
2023-03-04T16:03:42.532Z,102477.88
2023-03-04T16:06:11.970Z,102481.31
2023-03-04T16:08:40.458Z,102472.50
2023-03-04T16:11:09.846Z,102467.09
2023-03-04T16:13:36.203Z,102474.97
2023-03-04T16:16:02.745Z,102474.34
2023-03-04T16:18:29.282Z,102464.19
2023-03-04T16:20:55.642Z,102471.91
2023-03-04T16:23:24.533Z,102469.91
2023-03-04T16:25:54.389Z,102468.50
2023-03-04T16:28:21.116Z,102470.81
2023-03-04T16:30:47.882Z,102467.47
2023-03-04T16:33:16.649Z,102469.78
2023-03-04T16:35:44.283Z,102466.69
2023-03-04T16:38:22.264Z,102472.00
2023-03-04T16:40:49.498Z,102473.06
2023-03-04T16:43:15.885Z,102471.38
2023-03-04T16:45:42.696Z,102470.16
2023-03-04T16:48:09.071Z,102466.34
2023-03-04T16:50:37.210Z,102469.22
2023-03-04T16:53:05.518Z,102464.50
2023-03-04T16:55:32.346Z,102471.09
2023-03-04T16:57:58.932Z,102461.88
2023-03-04T17:00:28.113Z,102465.06
2023-03-04T17:02:57.587Z,102461.72
2023-03-04T17:05:26.373Z,102461.22
2023-03-04T17:07:53.068Z,102462.13
2023-03-04T17:10:19.786Z,102468.38
2023-03-04T17:12:46.226Z,102466.94
2023-03-04T17:15:14.877Z,102471.19
2023-03-04T17:17:42.646Z,102471.38
2023-03-04T17:20:11.619Z,102469.75
2023-03-04T17:22:38.055Z,102463.03
2023-03-04T17:25:05.053Z,102478.03
2023-03-04T17:27:31.654Z,102476.53
2023-03-04T17:29:57.967Z,102475.22
2023-03-04T17:32:26.056Z,102471.63
2023-03-04T17:34:55.579Z,102473.31
2023-03-04T17:37:21.983Z,102484.75
2023-03-04T17:39:48.389Z,102487.59
2023-03-04T17:42:14.867Z,102502.41
2023-03-04T17:44:41.389Z,102499.88
2023-03-04T17:47:08.483Z,102503.75
2023-03-04T17:49:34.910Z,102503.09
2023-03-04T17:52:03.448Z,102505.59
2023-03-04T17:54:29.838Z,102505.78
2023-03-04T17:56:56.268Z,102502.25
2023-03-04T17:59:22.851Z,102507.75
2023-03-04T18:01:51.691Z,102505.25
2023-03-04T18:04:20.149Z,102501.56
2023-03-04T18:06:46.917Z,102504.41
2023-03-04T18:09:15.944Z,102512.63
2023-03-04T18:11:43.679Z,102509.25
2023-03-04T18:14:13.756Z,102510.56
2023-03-04T18:16:40.552Z,102509.25
2023-03-04T18:19:09.206Z,102516.63
2023-03-04T18:21:35.724Z,102515.81
2023-03-04T18:24:02.464Z,102530.09
2023-03-04T18:26:28.886Z,102523.06
2023-03-04T18:28:56.054Z,102514.13
2023-03-04T18:31:25.254Z,102518.16
2023-03-04T18:33:52.128Z,102517.34
2023-03-04T18:36:18.868Z,102513.66
2023-03-04T18:38:45.297Z,102509.31
2023-03-04T18:41:13.796Z,102515.16
2023-03-04T18:43:40.689Z,102509.97
2023-03-04T18:46:28.974Z,102504.25
2023-03-04T18:49:00.139Z,102502.25
2023-03-04T18:51:26.482Z,102495.16
2023-03-04T18:53:52.949Z,102497.84
2023-03-04T18:56:37.576Z,102499.56
2023-03-04T18:59:18.008Z,102499.59
2023-03-04T19:01:45.578Z,102499.59
2023-03-04T19:04:16.818Z,102500.06
2023-03-04T19:06:43.462Z,102498.88
2023-03-04T19:09:09.981Z,102494.84
2023-03-04T19:11:36.494Z,102495.53
2023-03-04T19:14:02.909Z,102497.03
2023-03-04T19:16:29.427Z,102497.88
2023-03-04T19:18:55.833Z,102499.25
2023-03-04T19:21:22.203Z,102497.72
2023-03-04T19:23:48.632Z,102492.19
2023-03-04T19:26:15.505Z,102487.47
2023-03-04T19:28:42.528Z,102488.66
2023-03-04T19:31:10.367Z,102486.66
2023-03-04T19:33:37.732Z,102486.50
2023-03-04T19:36:06.012Z,102484.16
2023-03-04T19:38:33.540Z,102487.66
2023-03-04T19:41:00.073Z,102482.47
2023-03-04T19:43:26.518Z,102478.44
2023-03-04T19:45:54.581Z,102474.75
2023-03-04T19:48:21.671Z,102480.63
2023-03-04T19:50:48.624Z,102483.13
2023-03-04T19:53:18.382Z,102483.66
2023-03-04T19:55:53.541Z,102485.16
2023-03-04T19:58:20.085Z,102481.47
2023-03-04T20:00:46.494Z,102493.56
2023-03-04T20:03:13.443Z,102489.72
2023-03-04T20:05:40.015Z,102492.72
2023-03-04T20:08:06.508Z,102491.03
2023-03-04T20:10:36.571Z,102487.38
2023-03-04T20:13:07.533Z,102490.72
2023-03-04T20:15:37.574Z,102488.53
2023-03-04T20:18:04.408Z,102483.47
2023-03-04T20:20:30.809Z,102485.69
2023-03-04T20:22:57.671Z,102487.19
2023-03-04T20:25:25.161Z,102493.22
2023-03-04T20:27:51.562Z,102491.22
2023-03-04T20:30:18.281Z,102486.34
2023-03-04T20:32:45.274Z,102486.16
2023-03-04T20:35:14.896Z,102485.16
2023-03-04T20:37:42.235Z,102487.34
2023-03-04T20:40:13.231Z,102490.53
2023-03-04T20:42:39.672Z,102485.31
2023-03-04T20:45:06.690Z,102487.53
2023-03-04T20:47:33.252Z,102492.56
2023-03-04T20:49:59.687Z,102487.84
2023-03-04T20:52:26.150Z,102493.38
2023-03-04T20:54:52.617Z,102484.50
2023-03-04T20:57:19.265Z,102486.84
2023-03-04T20:59:45.706Z,102486.84
2023-03-04T21:02:14.961Z,102483.00
2023-03-04T21:04:41.758Z,102484.50
2023-03-04T21:07:08.201Z,102478.47
2023-03-04T21:09:34.603Z,102474.78
2023-03-04T21:12:01.276Z,102473.59
2023-03-04T21:14:29.660Z,102469.59
2023-03-04T21:17:01.678Z,102470.09
2023-03-04T21:19:32.996Z,102468.75
2023-03-04T21:22:01.066Z,102467.41
2023-03-04T21:24:30.238Z,102474.44
2023-03-04T21:26:57.836Z,102461.34
2023-03-04T21:29:26.950Z,102460.53
2023-03-04T21:31:57.614Z,102450.13
2023-03-04T21:34:34.590Z,102453.81
2023-03-04T21:37:01.610Z,102456.16
2023-03-04T21:39:28.341Z,102458.34
2023-03-04T21:41:55.506Z,102453.97
2023-03-04T21:44:28.728Z,102458.69
2023-03-04T21:47:00.497Z,102450.94
2023-03-04T21:49:27.683Z,102450.28
2023-03-04T21:51:54.184Z,102454.47
2023-03-04T21:54:20.874Z,102449.44
2023-03-04T21:56:47.470Z,102447.59
2023-03-04T21:59:14.593Z,102449.97
2023-03-04T22:01:41.483Z,102452.66
2023-03-04T22:04:08.033Z,102453.63
2023-03-04T22:06:34.465Z,102442.91
2023-03-04T22:09:02.323Z,102443.56
2023-03-04T22:11:30.047Z,102438.91
2023-03-04T22:13:58.993Z,102439.38
2023-03-04T22:16:26.307Z,102446.63
2023-03-04T22:18:52.886Z,102442.06
2023-03-04T22:21:20.570Z,102447.94
2023-03-04T22:23:47.015Z,102435.03
2023-03-04T22:26:18.289Z,102428.81
2023-03-04T22:28:45.484Z,102436.88
2023-03-04T22:31:39.567Z,102429.34
2023-03-04T22:34:11.765Z,102422.28
2023-03-04T22:36:41.571Z,102417.56
2023-03-04T22:39:10.107Z,102419.59
2023-03-04T22:41:37.024Z,102416.72
2023-03-04T22:44:06.029Z,102418.59
2023-03-04T22:46:34.756Z,102416.91
2023-03-04T22:49:06.524Z,102416.91
2023-03-04T22:51:32.982Z,102414.56
2023-03-04T22:53:59.325Z,102416.25
2023-03-04T22:56:25.730Z,102413.72
2023-03-04T22:58:52.384Z,102405.00
2023-03-04T23:01:19.893Z,102408.19
2023-03-04T23:03:48.148Z,102407.69
2023-03-04T23:06:17.448Z,102405.66
2023-03-04T23:08:46.033Z,102402.84
2023-03-04T23:11:21.081Z,102398.97
2023-03-04T23:13:48.884Z,102389.25
2023-03-04T23:16:15.838Z,102390.94
2023-03-04T23:18:43.975Z,102384.88
2023-03-04T23:21:14.455Z,102389.25
2023-03-04T23:23:41.755Z,102382.19
2023-03-04T23:26:20.038Z,102379.50
2023-03-04T23:28:46.854Z,102371.47
2023-03-04T23:31:16.626Z,102375.50
2023-03-04T23:33:44.268Z,102379.50
2023-03-04T23:36:15.203Z,102374.47
2023-03-04T23:38:45.859Z,102377.66
2023-03-04T23:41:17.585Z,102376.50
2023-03-04T23:43:44.221Z,102372.44
2023-03-04T23:46:14.134Z,102371.31
2023-03-04T23:48:51.243Z,102369.09
2023-03-04T23:51:20.052Z,102367.78
2023-03-04T23:53:46.963Z,102361.72
2023-03-04T23:56:19.382Z,102355.03
2023-03-04T23:58:46.548Z,102360.88
